aviador You're here:

CYVO Decoded Metar

VAL D'OR in QC, CANADA
Report Time2017-10-22 17:00:00
UTC Time2017-10-22 17:25:16
Flight Rules vfr VFR
Wind180° at 12 Gusting to 17 kt
W.Decomp.*RWY 18: 11.6 kt HW 2.9 kt RCW
W.Rank180° ranks 3
Current wind is above 180° avg. (8.0)
Visibility9999 m
Phenomena:N/A
Clouds:Few 220 Hf
Scattered 260 Hf
Expected CloudBase > 4,400 ft AGL from Temp-Dew spread
CeilingNone
Temp21°C (ISA +8)
Dew Point10°C (50% RH)
AAT16.8°C
QNH1020 hPa
Density Alt1,995 ft
Elevation1,106 ft
Report Wrong Elevation
Raw Report
CYVO 221700Z 18012G17KT 15SM FEW220 SCT260 21/10 A3013 RMK CC1CI2
SLP210 DENSITY ALT 1800FT=

Extra information for CYVO:More info

Metar Taf Metar & Taf Last 4 Metars F.Rules Stats Wind Profile Meteogram Temp Stats Airport Information Weather charts Add Link Nearby VenuesMetar ALERT Operation Metar Decoded Social comments